Maryhill, Washington
Current Conditions -  °F | °C
As of 12:53 AM on Saturday 25 Oct 2014 (Local Time) from KDLS Reporting Station
Overcast Overcast  
Wind Chill: 52°   Ceiling: 3200
Heat Index: 52°   Visibility: 10mi
Dew Point: 50°   Wind: 0mph
Humidity: 93%   Direction: NA
Pressure: 29.82"   Gusts: NA
Location:  45.9796°N, 120.737°W
Report Text: KDLS 250753Z AUTO 00000KT 10SM OVC032 11/10 A2982 RMK AO2 SLP098 T01110100 401220072
Loading
Personal Weather Stations






























Interactive Weather Map
Tropical Storm Tracking
New forecast layout! Learn more

10-Day Weather Forecast

Advertisements
Track Severe Weather on mobile